createdAt,value
2022-10-20T00:00:02.851Z,4.7
2022-10-20T00:20:02.763Z,4.6
2022-10-20T00:40:02.331Z,4.5
2022-10-20T01:00:02.706Z,4.4
2022-10-20T01:20:02.240Z,4.2
2022-10-20T01:40:02.642Z,4.1
2022-10-20T02:00:03.072Z,3.9
2022-10-20T02:20:02.850Z,3.9
2022-10-20T02:40:02.314Z,3.9
2022-10-20T03:00:02.719Z,3.9
2022-10-20T03:20:02.357Z,4
2022-10-20T03:40:02.931Z,3.9
2022-10-20T04:00:02.379Z,4
2022-10-20T04:20:03.035Z,4.1
2022-10-20T04:40:02.683Z,4
2022-10-20T05:00:03.016Z,3.8
2022-10-20T05:20:02.972Z,3.6
2022-10-20T05:40:02.361Z,3.6
2022-10-20T06:00:02.774Z,3.8
2022-10-20T06:20:02.345Z,4
2022-10-20T06:40:02.736Z,4.1
2022-10-20T07:00:03.238Z,4.3
2022-10-20T07:20:02.821Z,4.6
2022-10-20T07:40:02.121Z,5.2
2022-10-20T08:00:02.776Z,6.1
2022-10-20T08:20:03.033Z,7.2
2022-10-20T08:40:02.488Z,8.8
2022-10-20T09:00:06.916Z,10.4
2022-10-20T09:20:02.870Z,11.7
2022-10-20T09:40:02.338Z,12.7
2022-10-20T10:00:13.434Z,13.3
2022-10-20T10:20:02.962Z,13.9
2022-10-20T10:40:02.347Z,14.4
2022-10-20T11:00:03.052Z,14.7
2022-10-20T11:20:02.554Z,15
2022-10-20T11:40:04.487Z,15.2
2022-10-20T12:00:02.324Z,15.4
2022-10-20T12:20:02.815Z,15.4
2022-10-20T12:40:02.149Z,15.4
2022-10-20T13:00:02.587Z,14.9
2022-10-20T13:20:03.209Z,14.3
2022-10-20T13:40:02.648Z,13.8
2022-10-20T14:00:03.115Z,13.6
2022-10-20T14:20:02.990Z,13.3
2022-10-20T14:40:02.544Z,12.9
2022-10-20T15:00:03.102Z,12.7
2022-10-20T15:20:02.672Z,12.3
2022-10-20T15:40:02.283Z,12
2022-10-20T16:00:02.514Z,11.6
2022-10-20T16:20:02.572Z,11.2
2022-10-20T16:40:02.984Z,10.8
2022-10-20T17:00:02.300Z,10.5
2022-10-20T17:20:03.219Z,10.2
2022-10-20T17:40:02.691Z,9.9
2022-10-20T18:00:07.830Z,9.6
2022-10-20T18:20:02.426Z,9.4
2022-10-20T18:40:02.748Z,9.1
2022-10-20T19:00:03.193Z,9
2022-10-20T19:20:02.952Z,8.8
2022-10-20T19:40:02.409Z,8.6
2022-10-20T20:00:02.857Z,8.4
2022-10-20T20:20:02.509Z,8.3
2022-10-20T20:40:03.024Z,8
2022-10-20T21:00:02.559Z,7.7
2022-10-20T21:20:02.165Z,7.5
2022-10-20T21:40:02.638Z,7.3
2022-10-20T22:00:02.996Z,7.2
2022-10-20T22:20:02.427Z,7.3
2022-10-20T22:40:02.744Z,7.3
2022-10-20T23:00:03.103Z,7.5
2022-10-20T23:20:02.505Z,7.4
2022-10-20T23:40:02.607Z,7.5
